sensor_id;sensor_type;location;lat;lon;timestamp;pressure;altitude;pressure_sealevel;temperature;humidity
69411;BME280;56604;48.652;9.194;2023-05-22T00:00:30;95856.25;;;16.00;79.28
69411;BME280;56604;48.652;9.194;2023-05-22T00:02:56;95858.91;;;16.00;79.37
69411;BME280;56604;48.652;9.194;2023-05-22T00:05:22;95859.97;;;15.99;79.34
69411;BME280;56604;48.652;9.194;2023-05-22T00:07:47;95850.44;;;15.98;79.40
69411;BME280;56604;48.652;9.194;2023-05-22T00:10:13;95853.09;;;15.98;79.31
69411;BME280;56604;48.652;9.194;2023-05-22T00:12:38;95851.03;;;15.95;79.64
69411;BME280;56604;48.652;9.194;2023-05-22T00:15:04;95856.34;;;15.95;79.42
69411;BME280;56604;48.652;9.194;2023-05-22T00:17:30;95852.72;;;15.91;79.31
69411;BME280;56604;48.652;9.194;2023-05-22T00:19:55;95844.53;;;15.87;79.82
69411;BME280;56604;48.652;9.194;2023-05-22T00:22:26;95845.31;;;15.88;79.60
69411;BME280;56604;48.652;9.194;2023-05-22T00:24:52;95841.41;;;15.85;79.64
69411;BME280;56604;48.652;9.194;2023-05-22T00:27:17;95842.78;;;15.83;79.69
69411;BME280;56604;48.652;9.194;2023-05-22T00:29:42;95840.13;;;15.83;79.94
69411;BME280;56604;48.652;9.194;2023-05-22T00:32:08;95835.28;;;15.85;79.49
69411;BME280;56604;48.652;9.194;2023-05-22T00:34:33;95842.97;;;15.86;79.62
69411;BME280;56604;48.652;9.194;2023-05-22T00:36:59;95833.72;;;15.84;79.84
69411;BME280;56604;48.652;9.194;2023-05-22T00:39:24;95841.97;;;15.82;79.52
69411;BME280;56604;48.652;9.194;2023-05-22T00:41:49;95844.13;;;15.80;79.82
69411;BME280;56604;48.652;9.194;2023-05-22T00:44:17;95846.69;;;15.71;80.19
69411;BME280;56604;48.652;9.194;2023-05-22T00:46:43;95838.56;;;15.63;80.63
69411;BME280;56604;48.652;9.194;2023-05-22T00:49:08;95848.34;;;15.48;81.38
69411;BME280;56604;48.652;9.194;2023-05-22T00:51:33;95842.94;;;15.40;81.73
69411;BME280;56604;48.652;9.194;2023-05-22T00:53:59;95839.97;;;15.41;81.74
69411;BME280;56604;48.652;9.194;2023-05-22T00:56:24;95843.97;;;15.39;81.95
69411;BME280;56604;48.652;9.194;2023-05-22T00:58:51;95842.00;;;15.30;82.51
69411;BME280;56604;48.652;9.194;2023-05-22T01:01:17;95841.16;;;15.16;83.14
69411;BME280;56604;48.652;9.194;2023-05-22T01:03:43;95838.56;;;15.11;83.46
69411;BME280;56604;48.652;9.194;2023-05-22T01:06:13;95836.03;;;15.06;83.83
69411;BME280;56604;48.652;9.194;2023-05-22T01:08:39;95850.88;;;15.02;83.85
69411;BME280;56604;48.652;9.194;2023-05-22T01:11:15;95854.69;;;14.96;84.16
69411;BME280;56604;48.652;9.194;2023-05-22T01:16:25;95844.72;;;14.88;84.64
69411;BME280;56604;48.652;9.194;2023-05-22T01:21:57;95852.59;;;14.93;83.98
69411;BME280;56604;48.652;9.194;2023-05-22T01:30:55;95857.97;;;14.88;84.14
69411;BME280;56604;48.652;9.194;2023-05-22T01:33:25;95867.72;;;14.92;83.85
69411;BME280;56604;48.652;9.194;2023-05-22T01:35:53;95856.09;;;14.88;83.84
69411;BME280;56604;48.652;9.194;2023-05-22T01:38:24;95860.09;;;14.85;84.05
69411;BME280;56604;48.652;9.194;2023-05-22T01:40:49;95865.41;;;14.85;84.37
69411;BME280;56604;48.652;9.194;2023-05-22T01:43:16;95864.69;;;14.80;84.54
69411;BME280;56604;48.652;9.194;2023-05-22T01:45:41;95865.53;;;14.75;84.93
69411;BME280;56604;48.652;9.194;2023-05-22T01:48:07;95872.47;;;14.71;85.39
69411;BME280;56604;48.652;9.194;2023-05-22T01:50:32;95867.53;;;14.65;85.80
69411;BME280;56604;48.652;9.194;2023-05-22T01:53:09;95875.31;;;14.56;86.47
69411;BME280;56604;48.652;9.194;2023-05-22T01:55:39;95873.47;;;14.51;86.46
69411;BME280;56604;48.652;9.194;2023-05-22T02:01:00;95876.97;;;14.47;86.85
69411;BME280;56604;48.652;9.194;2023-05-22T02:03:30;95873.81;;;14.45;86.93
69411;BME280;56604;48.652;9.194;2023-05-22T02:05:58;95873.59;;;14.41;87.76
69411;BME280;56604;48.652;9.194;2023-05-22T02:08:26;95868.56;;;14.39;87.22
69411;BME280;56604;48.652;9.194;2023-05-22T02:10:54;95874.91;;;14.44;87.29
69411;BME280;56604;48.652;9.194;2023-05-22T02:13:20;95872.53;;;14.42;87.21
69411;BME280;56604;48.652;9.194;2023-05-22T02:15:46;95873.81;;;14.45;87.48
69411;BME280;56604;48.652;9.194;2023-05-22T02:18:13;95865.59;;;14.46;87.43
69411;BME280;56604;48.652;9.194;2023-05-22T02:20:38;95870.56;;;14.53;87.45
69411;BME280;56604;48.652;9.194;2023-05-22T02:23:04;95862.81;;;14.61;87.08
69411;BME280;56604;48.652;9.194;2023-05-22T02:25:29;95860.66;;;14.64;86.85
69411;BME280;56604;48.652;9.194;2023-05-22T02:27:55;95862.75;;;14.67;86.38
69411;BME280;56604;48.652;9.194;2023-05-22T02:30:20;95867.97;;;14.72;86.36
69411;BME280;56604;48.652;9.194;2023-05-22T02:32:46;95855.09;;;14.84;85.88
69411;BME280;56604;48.652;9.194;2023-05-22T02:35:11;95864.03;;;14.88;85.63
69411;BME280;56604;48.652;9.194;2023-05-22T02:37:37;95862.09;;;14.94;85.52
69411;BME280;56604;48.652;9.194;2023-05-22T02:40:02;95857.53;;;14.99;85.39
69411;BME280;56604;48.652;9.194;2023-05-22T02:42:31;95863.91;;;14.98;85.08
69411;BME280;56604;48.652;9.194;2023-05-22T02:44:56;95860.53;;;14.93;85.31
69411;BME280;56604;48.652;9.194;2023-05-22T02:47:22;95862.63;;;14.96;84.99
69411;BME280;56604;48.652;9.194;2023-05-22T02:49:47;95858.34;;;15.00;84.87
69411;BME280;56604;48.652;9.194;2023-05-22T02:52:12;95865.56;;;14.94;84.90
69411;BME280;56604;48.652;9.194;2023-05-22T02:54:38;95865.19;;;15.01;84.52
69411;BME280;56604;48.652;9.194;2023-05-22T02:57:03;95862.63;;;14.96;84.42
69411;BME280;56604;48.652;9.194;2023-05-22T02:59:28;95859.69;;;14.97;84.13
69411;BME280;56604;48.652;9.194;2023-05-22T03:01:54;95858.88;;;14.97;84.09
69411;BME280;56604;48.652;9.194;2023-05-22T03:04:20;95862.03;;;14.99;84.04
69411;BME280;56604;48.652;9.194;2023-05-22T03:06:45;95859.41;;;14.99;84.59
69411;BME280;56604;48.652;9.194;2023-05-22T03:09:11;95861.47;;;15.02;84.38
69411;BME280;56604;48.652;9.194;2023-05-22T03:11:36;95864.91;;;14.83;84.82
69411;BME280;56604;48.652;9.194;2023-05-22T03:14:01;95869.28;;;14.74;85.63
69411;BME280;56604;48.652;9.194;2023-05-22T03:16:27;95876.19;;;14.70;85.58
69411;BME280;56604;48.652;9.194;2023-05-22T03:19:08;95876.81;;;14.62;86.12
69411;BME280;56604;48.652;9.194;2023-05-22T03:21:34;95882.72;;;14.54;86.64
69411;BME280;56604;48.652;9.194;2023-05-22T03:23:59;95886.44;;;14.53;87.26
69411;BME280;56604;48.652;9.194;2023-05-22T03:26:25;95884.03;;;14.56;86.95
69411;BME280;56604;48.652;9.194;2023-05-22T03:28:52;95892.19;;;14.60;87.00
69411;BME280;56604;48.652;9.194;2023-05-22T03:31:18;95884.25;;;14.60;86.77
69411;BME280;56604;48.652;9.194;2023-05-22T03:33:43;95887.44;;;14.57;86.81
69411;BME280;56604;48.652;9.194;2023-05-22T03:36:08;95888.16;;;14.38;87.83
69411;BME280;56604;48.652;9.194;2023-05-22T03:38:33;95887.94;;;14.35;87.79
69411;BME280;56604;48.652;9.194;2023-05-22T03:40:59;95894.38;;;14.29;87.83
69411;BME280;56604;48.652;9.194;2023-05-22T03:43:24;95890.66;;;14.30;87.80
69411;BME280;56604;48.652;9.194;2023-05-22T03:45:49;95888.00;;;14.30;88.06
69411;BME280;56604;48.652;9.194;2023-05-22T03:48:15;95891.47;;;14.25;87.99
69411;BME280;56604;48.652;9.194;2023-05-22T03:50:40;95888.78;;;14.30;87.82
69411;BME280;56604;48.652;9.194;2023-05-22T03:53:05;95884.19;;;14.41;87.03
69411;BME280;56604;48.652;9.194;2023-05-22T03:55:31;95880.13;;;14.49;86.76
69411;BME280;56604;48.652;9.194;2023-05-22T03:57:56;95882.00;;;14.72;85.81
69411;BME280;56604;48.652;9.194;2023-05-22T04:00:21;95886.03;;;14.89;84.72
69411;BME280;56604;48.652;9.194;2023-05-22T04:02:47;95878.72;;;14.99;84.10
69411;BME280;56604;48.652;9.194;2023-05-22T04:05:15;95887.94;;;15.02;83.58
69411;BME280;56604;48.652;9.194;2023-05-22T04:07:40;95882.88;;;15.05;83.11
69411;BME280;56604;48.652;9.194;2023-05-22T04:10:06;95892.59;;;15.10;82.66
69411;BME280;56604;48.652;9.194;2023-05-22T04:12:31;95892.53;;;15.15;82.50
69411;BME280;56604;48.652;9.194;2023-05-22T04:14:57;95897.38;;;15.08;82.85
69411;BME280;56604;48.652;9.194;2023-05-22T04:17:22;95895.81;;;15.07;82.79
69411;BME280;56604;48.652;9.194;2023-05-22T04:19:47;95895.47;;;15.14;82.28
69411;BME280;56604;48.652;9.194;2023-05-22T04:22:13;95900.34;;;15.06;82.58
69411;BME280;56604;48.652;9.194;2023-05-22T04:24:38;95899.13;;;15.18;81.92
69411;BME280;56604;48.652;9.194;2023-05-22T04:27:04;95901.97;;;15.21;81.53
69411;BME280;56604;48.652;9.194;2023-05-22T04:29:30;95904.91;;;15.39;80.92
69411;BME280;56604;48.652;9.194;2023-05-22T04:31:55;95895.88;;;15.59;80.15
69411;BME280;56604;48.652;9.194;2023-05-22T04:34:20;95898.63;;;15.67;79.75
69411;BME280;56604;48.652;9.194;2023-05-22T04:36:46;95905.03;;;15.66;79.14
69411;BME280;56604;48.652;9.194;2023-05-22T04:39:12;95905.31;;;15.84;79.15
69411;BME280;56604;48.652;9.194;2023-05-22T04:41:40;95901.91;;;15.97;78.40
69411;BME280;56604;48.652;9.194;2023-05-22T04:44:06;95904.19;;;16.17;77.58
69411;BME280;56604;48.652;9.194;2023-05-22T04:46:32;95906.09;;;16.86;75.36
69411;BME280;56604;48.652;9.194;2023-05-22T04:49:00;95893.03;;;17.85;71.25
69411;BME280;56604;48.652;9.194;2023-05-22T04:51:29;95895.31;;;18.31;69.24
69411;BME280;56604;48.652;9.194;2023-05-22T04:53:56;95904.31;;;18.53;68.88
69411;BME280;56604;48.652;9.194;2023-05-22T04:56:22;95902.94;;;18.24;69.09
69411;BME280;56604;48.652;9.194;2023-05-22T04:58:49;95907.75;;;18.84;67.61
69411;BME280;56604;48.652;9.194;2023-05-22T05:01:14;95907.78;;;19.54;64.76
69411;BME280;56604;48.652;9.194;2023-05-22T05:03:41;95900.69;;;20.57;62.18
69411;BME280;56604;48.652;9.194;2023-05-22T05:06:06;95904.19;;;20.49;61.59
69411;BME280;56604;48.652;9.194;2023-05-22T05:08:32;95903.19;;;21.64;58.14
69411;BME280;56604;48.652;9.194;2023-05-22T05:10:57;95908.66;;;21.67;57.86
69411;BME280;56604;48.652;9.194;2023-05-22T05:13:23;95911.16;;;23.12;54.14
69411;BME280;56604;48.652;9.194;2023-05-22T05:15:48;95908.47;;;24.53;50.99
69411;BME280;56604;48.652;9.194;2023-05-22T05:18:14;95920.47;;;24.28;50.14
69411;BME280;56604;48.652;9.194;2023-05-22T05:20:39;95921.00;;;23.89;51.38
69411;BME280;56604;48.652;9.194;2023-05-22T05:23:04;95913.13;;;25.39;46.82
69411;BME280;56604;48.652;9.194;2023-05-22T05:25:30;95919.75;;;25.26;46.22
69411;BME280;56604;48.652;9.194;2023-05-22T05:27:55;95916.47;;;25.01;47.09
69411;BME280;56604;48.652;9.194;2023-05-22T05:30:21;95919.81;;;24.31;50.54
69411;BME280;56604;48.652;9.194;2023-05-22T05:32:47;95923.44;;;24.22;51.69
69411;BME280;56604;48.652;9.194;2023-05-22T05:35:12;95918.28;;;26.48;43.93
69411;BME280;56604;48.652;9.194;2023-05-22T05:37:37;95925.19;;;26.03;45.00
69411;BME280;56604;48.652;9.194;2023-05-22T05:40:03;95933.84;;;23.55;51.38
69411;BME280;56604;48.652;9.194;2023-05-22T05:42:31;95919.41;;;24.60;49.68
69411;BME280;56604;48.652;9.194;2023-05-22T05:44:56;95934.59;;;23.68;51.41
69411;BME280;56604;48.652;9.194;2023-05-22T05:47:21;95931.66;;;23.33;52.46
69411;BME280;56604;48.652;9.194;2023-05-22T05:49:48;95925.88;;;24.91;48.77
69411;BME280;56604;48.652;9.194;2023-05-22T05:52:13;95931.31;;;23.87;50.35
69411;BME280;56604;48.652;9.194;2023-05-22T05:54:38;95923.59;;;23.86;51.51
69411;BME280;56604;48.652;9.194;2023-05-22T05:57:10;95928.59;;;24.15;50.73
69411;BME280;56604;48.652;9.194;2023-05-22T05:59:35;95935.13;;;23.33;52.83
69411;BME280;56604;48.652;9.194;2023-05-22T06:02:01;95940.72;;;22.79;54.44
69411;BME280;56604;48.652;9.194;2023-05-22T06:04:26;95944.66;;;21.28;58.29
69411;BME280;56604;48.652;9.194;2023-05-22T06:06:52;95948.91;;;20.05;63.01
69411;BME280;56604;48.652;9.194;2023-05-22T06:09:18;95945.00;;;19.85;63.96
69411;BME280;56604;48.652;9.194;2023-05-22T06:11:43;95939.16;;;21.03;60.72
69411;BME280;56604;48.652;9.194;2023-05-22T06:14:08;95936.69;;;21.82;58.64
69411;BME280;56604;48.652;9.194;2023-05-22T06:16:34;95937.06;;;20.79;61.63
69411;BME280;56604;48.652;9.194;2023-05-22T06:18:59;95954.16;;;21.17;60.15
69411;BME280;56604;48.652;9.194;2023-05-22T06:21:24;95947.13;;;21.96;58.56
69411;BME280;56604;48.652;9.194;2023-05-22T06:23:50;95952.69;;;22.70;55.52
69411;BME280;56604;48.652;9.194;2023-05-22T06:26:16;95949.94;;;23.03;55.73
69411;BME280;56604;48.652;9.194;2023-05-22T06:28:42;95955.97;;;23.00;54.11
69411;BME280;56604;48.652;9.194;2023-05-22T06:31:07;95955.06;;;23.08;54.12
69411;BME280;56604;48.652;9.194;2023-05-22T06:33:34;95951.53;;;25.04;48.80
69411;BME280;56604;48.652;9.194;2023-05-22T06:36:01;95956.00;;;24.65;50.58
69411;BME280;56604;48.652;9.194;2023-05-22T06:38:27;95957.22;;;25.50;48.19
69411;BME280;56604;48.652;9.194;2023-05-22T06:40:53;95947.75;;;27.07;43.88
69411;BME280;56604;48.652;9.194;2023-05-22T06:43:18;95957.13;;;26.90;44.05
69411;BME280;56604;48.652;9.194;2023-05-22T06:45:43;95962.44;;;27.93;42.09
69411;BME280;56604;48.652;9.194;2023-05-22T06:48:10;95956.66;;;26.84;43.31
69411;BME280;56604;48.652;9.194;2023-05-22T06:50:36;95956.66;;;27.64;42.46
69411;BME280;56604;48.652;9.194;2023-05-22T06:53:01;95956.66;;;27.11;43.60
69411;BME280;56604;48.652;9.194;2023-05-22T06:55:26;95958.56;;;25.79;47.82
69411;BME280;56604;48.652;9.194;2023-05-22T06:57:51;95957.38;;;26.81;44.32
69411;BME280;56604;48.652;9.194;2023-05-22T07:00:17;95960.88;;;29.07;39.41
69411;BME280;56604;48.652;9.194;2023-05-22T07:02:43;95965.13;;;28.64;40.58
69411;BME280;56604;48.652;9.194;2023-05-22T07:05:08;95961.22;;;27.30;42.29
69411;BME280;56604;48.652;9.194;2023-05-22T07:07:33;95965.59;;;26.23;45.50
69411;BME280;56604;48.652;9.194;2023-05-22T07:09:59;95969.34;;;27.60;43.35
69411;BME280;56604;48.652;9.194;2023-05-22T07:12:25;95966.97;;;26.56;44.95
69411;BME280;56604;48.652;9.194;2023-05-22T07:14:51;95966.97;;;26.56;45.46
69411;BME280;56604;48.652;9.194;2023-05-22T07:17:17;95966.81;;;27.44;43.62
69411;BME280;56604;48.652;9.194;2023-05-22T07:19:44;95974.03;;;26.21;45.27
69411;BME280;56604;48.652;9.194;2023-05-22T07:22:10;95970.03;;;25.22;50.16
69411;BME280;56604;48.652;9.194;2023-05-22T07:24:35;95970.78;;;25.38;49.21
69411;BME280;56604;48.652;9.194;2023-05-22T07:27:00;95968.97;;;25.62;49.60
69411;BME280;56604;48.652;9.194;2023-05-22T07:29:26;95963.88;;;25.05;49.11
69411;BME280;56604;48.652;9.194;2023-05-22T07:31:51;95961.38;;;24.65;51.20
69411;BME280;56604;48.652;9.194;2023-05-22T07:34:16;95975.94;;;23.92;53.93
69411;BME280;56604;48.652;9.194;2023-05-22T07:36:42;95978.03;;;24.27;52.50
69411;BME280;56604;48.652;9.194;2023-05-22T07:39:07;95967.75;;;23.48;55.15
69411;BME280;56604;48.652;9.194;2023-05-22T07:41:33;95965.75;;;24.13;53.89
69411;BME280;56604;48.652;9.194;2023-05-22T07:43:59;95967.72;;;23.60;55.39
69411;BME280;56604;48.652;9.194;2023-05-22T07:46:24;95969.09;;;23.94;54.83
69411;BME280;56604;48.652;9.194;2023-05-22T07:48:50;95967.28;;;23.98;54.41
69411;BME280;56604;48.652;9.194;2023-05-22T07:51:15;95969.50;;;23.81;55.12
69411;BME280;56604;48.652;9.194;2023-05-22T07:53:40;95970.06;;;23.62;57.23
69411;BME280;56604;48.652;9.194;2023-05-22T07:56:06;95969.97;;;23.58;55.83
69411;BME280;56604;48.652;9.194;2023-05-22T07:58:31;95969.13;;;23.05;57.55
69411;BME280;56604;48.652;9.194;2023-05-22T08:00:58;95972.69;;;23.33;56.40
69411;BME280;56604;48.652;9.194;2023-05-22T08:03:24;95980.25;;;23.56;56.10
69411;BME280;56604;48.652;9.194;2023-05-22T08:05:49;95977.78;;;23.63;55.28
69411;BME280;56604;48.652;9.194;2023-05-22T08:08:15;95978.84;;;23.87;54.56
69411;BME280;56604;48.652;9.194;2023-05-22T08:10:40;95978.13;;;24.02;55.13
69411;BME280;56604;48.652;9.194;2023-05-22T08:13:06;95981.84;;;24.26;53.62
69411;BME280;56604;48.652;9.194;2023-05-22T08:15:32;95975.09;;;24.32;53.99
69411;BME280;56604;48.652;9.194;2023-05-22T08:17:58;95977.56;;;24.24;54.07
69411;BME280;56604;48.652;9.194;2023-05-22T08:20:24;95970.28;;;24.53;53.40
69411;BME280;56604;48.652;9.194;2023-05-22T08:22:49;95971.34;;;24.49;53.96
69411;BME280;56604;48.652;9.194;2023-05-22T08:25:15;95971.16;;;24.89;52.60
69411;BME280;56604;48.652;9.194;2023-05-22T08:27:40;95974.84;;;23.81;55.25
69411;BME280;56604;48.652;9.194;2023-05-22T08:30:06;95963.34;;;24.52;54.22
69411;BME280;56604;48.652;9.194;2023-05-22T08:32:32;95968.00;;;23.30;56.10
69411;BME280;56604;48.652;9.194;2023-05-22T08:34:57;95967.53;;;24.65;54.69
69411;BME280;56604;48.652;9.194;2023-05-22T08:37:23;95962.34;;;26.56;49.80
69411;BME280;56604;48.652;9.194;2023-05-22T08:39:49;95968.63;;;27.10;47.89
69411;BME280;56604;48.652;9.194;2023-05-22T08:42:14;95972.09;;;27.94;46.95
69411;BME280;56604;48.652;9.194;2023-05-22T08:44:39;95964.38;;;28.67;43.92
69411;BME280;56604;48.652;9.194;2023-05-22T08:47:05;95957.19;;;29.37;42.55
69411;BME280;56604;48.652;9.194;2023-05-22T08:49:37;95958.97;;;29.77;40.78
69411;BME280;56604;48.652;9.194;2023-05-22T08:52:08;95963.09;;;30.73;38.02
69411;BME280;56604;48.652;9.194;2023-05-22T08:54:35;95975.09;;;30.51;39.21
69411;BME280;56604;48.652;9.194;2023-05-22T08:57:04;95962.66;;;29.44;42.70
69411;BME280;56604;48.652;9.194;2023-05-22T08:59:30;95972.66;;;28.85;42.41
69411;BME280;56604;48.652;9.194;2023-05-22T09:01:56;95969.31;;;30.77;39.15
69411;BME280;56604;48.652;9.194;2023-05-22T09:04:23;95958.81;;;30.65;39.68
69411;BME280;56604;48.652;9.194;2023-05-22T09:06:48;95965.81;;;31.48;37.75
69411;BME280;56604;48.652;9.194;2023-05-22T09:09:14;95962.25;;;31.69;38.01
69411;BME280;56604;48.652;9.194;2023-05-22T09:11:39;95962.94;;;31.88;37.26
69411;BME280;56604;48.652;9.194;2023-05-22T09:14:06;95977.22;;;29.22;39.13
69411;BME280;56604;48.652;9.194;2023-05-22T09:16:32;95971.22;;;28.54;41.54
69411;BME280;56604;48.652;9.194;2023-05-22T09:18:58;95965.50;;;29.66;40.70
69411;BME280;56604;48.652;9.194;2023-05-22T09:21:26;95964.28;;;29.59;40.68
69411;BME280;56604;48.652;9.194;2023-05-22T09:23:51;95971.06;;;30.05;41.97
69411;BME280;56604;48.652;9.194;2023-05-22T09:26:17;95963.09;;;30.73;39.75
69411;BME280;56604;48.652;9.194;2023-05-22T09:28:42;95965.38;;;30.39;38.96
69411;BME280;56604;48.652;9.194;2023-05-22T09:31:08;95979.44;;;31.05;38.55
69411;BME280;56604;48.652;9.194;2023-05-22T09:33:35;95960.22;;;31.88;35.84
69411;BME280;56604;48.652;9.194;2023-05-22T09:36:01;95960.03;;;31.03;37.26
69411;BME280;56604;48.652;9.194;2023-05-22T09:38:28;95960.78;;;30.82;39.54
69411;BME280;56604;48.652;9.194;2023-05-22T09:40:55;95956.69;;;29.90;39.72
69411;BME280;56604;48.652;9.194;2023-05-22T09:43:22;95952.56;;;29.41;41.06
69411;BME280;56604;48.652;9.194;2023-05-22T09:45:59;95955.06;;;29.68;39.56
69411;BME280;56604;48.652;9.194;2023-05-22T09:48:25;95961.41;;;30.08;40.08
69411;BME280;56604;48.652;9.194;2023-05-22T09:50:54;95960.63;;;30.03;38.69
69411;BME280;56604;48.652;9.194;2023-05-22T09:53:25;95952.84;;;29.95;38.74
69411;BME280;56604;48.652;9.194;2023-05-22T09:55:54;95952.91;;;30.13;39.23
69411;BME280;56604;48.652;9.194;2023-05-22T09:58:21;95959.03;;;29.95;38.65
69411;BME280;56604;48.652;9.194;2023-05-22T10:00:48;95951.03;;;29.44;39.53
69411;BME280;56604;48.652;9.194;2023-05-22T10:03:14;95954.44;;;30.14;39.24
69411;BME280;56604;48.652;9.194;2023-05-22T10:05:50;95952.69;;;28.56;41.49
69411;BME280;56604;48.652;9.194;2023-05-22T10:08:31;95955.44;;;29.07;40.93
69411;BME280;56604;48.652;9.194;2023-05-22T10:11:01;95948.94;;;27.93;42.43
69411;BME280;56604;48.652;9.194;2023-05-22T10:13:27;95947.19;;;28.93;41.94
69411;BME280;56604;48.652;9.194;2023-05-22T10:15:53;95948.66;;;28.39;42.99
69411;BME280;56604;48.652;9.194;2023-05-22T10:18:18;95963.41;;;28.45;42.33
69411;BME280;56604;48.652;9.194;2023-05-22T10:20:44;95953.41;;;29.52;40.09
69411;BME280;56604;48.652;9.194;2023-05-22T10:23:11;95941.75;;;29.41;40.79
69411;BME280;56604;48.652;9.194;2023-05-22T10:25:39;95945.56;;;29.36;38.69
69411;BME280;56604;48.652;9.194;2023-05-22T10:28:06;95943.84;;;28.62;41.61
69411;BME280;56604;48.652;9.194;2023-05-22T10:33:06;95952.94;;;28.88;41.50
69411;BME280;56604;48.652;9.194;2023-05-22T10:35:42;95948.22;;;27.39;43.05
69411;BME280;56604;48.652;9.194;2023-05-22T10:40:43;95939.22;;;27.58;45.55
69411;BME280;56604;48.652;9.194;2023-05-22T10:43:10;95933.44;;;27.29;45.99
69411;BME280;56604;48.652;9.194;2023-05-22T10:45:35;95933.31;;;27.19;47.31
69411;BME280;56604;48.652;9.194;2023-05-22T10:48:20;95931.44;;;27.00;45.04
69411;BME280;56604;48.652;9.194;2023-05-22T10:50:50;95926.63;;;27.12;45.09
69411;BME280;56604;48.652;9.194;2023-05-22T10:58:14;95924.50;;;28.19;40.80
69411;BME280;56604;48.652;9.194;2023-05-22T11:00:40;95917.00;;;27.72;42.67
69411;BME280;56604;48.652;9.194;2023-05-22T11:03:05;95915.13;;;27.46;44.53
69411;BME280;56604;48.652;9.194;2023-05-22T11:08:08;95919.13;;;27.86;43.58
69411;BME280;56604;48.652;9.194;2023-05-22T11:10:55;95911.38;;;27.54;42.62
69411;BME280;56604;48.652;9.194;2023-05-22T11:13:26;95922.03;;;27.43;45.62
69411;BME280;56604;48.652;9.194;2023-05-22T11:15:53;95908.50;;;27.40;45.61
69411;BME280;56604;48.652;9.194;2023-05-22T11:18:19;95907.22;;;26.77;45.31
69411;BME280;56604;48.652;9.194;2023-05-22T11:20:45;95902.78;;;26.65;47.20
69411;BME280;56604;48.652;9.194;2023-05-22T11:23:10;95892.78;;;26.92;48.90
69411;BME280;56604;48.652;9.194;2023-05-22T11:25:36;95898.50;;;26.18;45.61
69411;BME280;56604;48.652;9.194;2023-05-22T11:28:03;95895.94;;;26.48;47.25
69411;BME280;56604;48.652;9.194;2023-05-22T11:30:30;95892.34;;;26.40;46.93
69411;BME280;56604;48.652;9.194;2023-05-22T11:32:59;95885.34;;;26.59;49.58
69411;BME280;56604;48.652;9.194;2023-05-22T11:35:27;95879.63;;;26.87;44.89
69411;BME280;56604;48.652;9.194;2023-05-22T11:37:54;95886.41;;;27.30;46.16
69411;BME280;56604;48.652;9.194;2023-05-22T11:40:21;95883.41;;;27.35;44.45
69411;BME280;56604;48.652;9.194;2023-05-22T11:42:48;95882.56;;;27.31;43.49
69411;BME280;56604;48.652;9.194;2023-05-22T11:45:14;95883.47;;;27.43;44.56
69411;BME280;56604;48.652;9.194;2023-05-22T11:47:40;95872.03;;;27.53;44.58
69411;BME280;56604;48.652;9.194;2023-05-22T11:50:10;95869.81;;;27.02;44.47
69411;BME280;56604;48.652;9.194;2023-05-22T11:52:37;95863.34;;;26.83;44.56
69411;BME280;56604;48.652;9.194;2023-05-22T11:55:03;95869.94;;;26.59;46.56
69411;BME280;56604;48.652;9.194;2023-05-22T11:57:32;95869.56;;;26.38;44.13
69411;BME280;56604;48.652;9.194;2023-05-22T11:59:58;95868.69;;;26.30;46.80
69411;BME280;56604;48.652;9.194;2023-05-22T12:02:24;95863.00;;;26.58;45.52
69411;BME280;56604;48.652;9.194;2023-05-22T12:04:53;95864.00;;;26.73;44.82
69411;BME280;56604;48.652;9.194;2023-05-22T12:07:19;95861.66;;;26.48;45.16
69411;BME280;56604;48.652;9.194;2023-05-22T12:09:46;95861.28;;;27.00;46.70
69411;BME280;56604;48.652;9.194;2023-05-22T12:12:11;95855.28;;;26.83;44.00
69411;BME280;56604;48.652;9.194;2023-05-22T12:14:43;95861.19;;;26.66;45.47
69411;BME280;56604;48.652;9.194;2023-05-22T12:17:13;95865.63;;;26.55;43.59
69411;BME280;56604;48.652;9.194;2023-05-22T12:19:40;95862.63;;;26.60;44.08
69411;BME280;56604;48.652;9.194;2023-05-22T12:22:05;95861.94;;;26.66;43.55
69411;BME280;56604;48.652;9.194;2023-05-22T12:24:39;95865.25;;;27.09;44.29
69411;BME280;56604;48.652;9.194;2023-05-22T12:27:09;95863.16;;;26.69;43.35
69411;BME280;56604;48.652;9.194;2023-05-22T12:29:36;95860.63;;;26.53;43.71
69411;BME280;56604;48.652;9.194;2023-05-22T12:32:03;95857.63;;;26.58;43.53
69411;BME280;56604;48.652;9.194;2023-05-22T12:34:33;95866.16;;;26.64;45.89
69411;BME280;56604;48.652;9.194;2023-05-22T12:36:59;95864.09;;;26.54;42.74
69411;BME280;56604;48.652;9.194;2023-05-22T12:39:24;95862.13;;;26.51;42.56
69411;BME280;56604;48.652;9.194;2023-05-22T12:41:50;95864.72;;;26.97;44.21
69411;BME280;56604;48.652;9.194;2023-05-22T12:44:16;95871.78;;;27.35;41.80
69411;BME280;56604;48.652;9.194;2023-05-22T12:46:41;95864.97;;;27.45;43.29
69411;BME280;56604;48.652;9.194;2023-05-22T12:49:07;95873.03;;;27.75;41.88
69411;BME280;56604;48.652;9.194;2023-05-22T12:51:33;95859.16;;;27.76;42.40
69411;BME280;56604;48.652;9.194;2023-05-22T12:54:02;95873.78;;;27.72;42.35
69411;BME280;56604;48.652;9.194;2023-05-22T12:56:28;95863.38;;;27.40;41.59
69411;BME280;56604;48.652;9.194;2023-05-22T12:58:55;95865.81;;;27.19;41.73
69411;BME280;56604;48.652;9.194;2023-05-22T13:01:21;95860.81;;;27.21;42.98
69411;BME280;56604;48.652;9.194;2023-05-22T13:03:48;95860.16;;;27.27;40.82
69411;BME280;56604;48.652;9.194;2023-05-22T13:06:15;95851.09;;;26.89;42.38
69411;BME280;56604;48.652;9.194;2023-05-22T13:08:40;95851.75;;;26.79;42.17
69411;BME280;56604;48.652;9.194;2023-05-22T13:11:05;95849.97;;;26.18;43.30
69411;BME280;56604;48.652;9.194;2023-05-22T13:13:31;95840.41;;;25.97;42.71
69411;BME280;56604;48.652;9.194;2023-05-22T13:15:56;95852.63;;;25.72;44.21
69411;BME280;56604;48.652;9.194;2023-05-22T13:18:21;95843.72;;;25.29;43.23
69411;BME280;56604;48.652;9.194;2023-05-22T13:20:47;95844.00;;;25.43;44.25
69411;BME280;56604;48.652;9.194;2023-05-22T13:23:12;95848.81;;;25.34;44.46